Time;durP1;ratioP1;P1;durP2;ratioP2;P2;SDS_P1;SDS_P2;PMS_P1;PMS_P2;Temp;Humidity;BMP_temperature;BMP_pressure;BME280_temperature;BME280_humidity;BME280_pressure;Samples;Min_cycle;Max_cycle;Signal;HPM_P1;HPM_P2
2023/05/07 00:02:22;;;;;;;22.13;17.35;;;13.00;99.90;;;;;;4963962;28;20139;-72
2023/05/07 00:04:48;;;;;;;23.15;16.63;;;13.10;99.90;;;;;;4948013;28;20475;-72
2023/05/07 00:07:14;;;;;;;24.55;17.60;;;12.90;99.90;;;;;;4949638;28;20406;-72
2023/05/07 00:09:40;;;;;;;30.25;18.30;;;12.90;99.90;;;;;;4966470;28;20046;-73
2023/05/07 00:12:06;;;;;;;22.05;17.35;;;12.90;99.90;;;;;;4963363;28;20046;-72
2023/05/07 00:14:31;;;;;;;21.40;16.55;;;12.90;99.90;;;;;;4963200;28;20044;-72
2023/05/07 00:16:57;;;;;;;24.42;17.33;;;13.00;99.90;;;;;;4946542;28;20063;-72
2023/05/07 00:19:23;;;;;;;23.17;17.48;;;12.80;99.90;;;;;;4966176;28;20045;-74
2023/05/07 00:21:48;;;;;;;26.90;17.75;;;12.80;99.90;;;;;;4965944;28;20043;-73
2023/05/07 00:24:14;;;;;;;24.15;17.45;;;12.80;99.90;;;;;;4946573;28;20149;-74
2023/05/07 00:26:40;;;;;;;25.00;17.88;;;12.80;99.90;;;;;;4963043;28;20495;-73
2023/05/07 00:29:05;;;;;;;24.55;17.30;;;12.80;99.90;;;;;;4946357;28;20463;-75
2023/05/07 00:31:31;;;;;;;27.77;17.60;;;12.80;99.90;;;;;;4965986;28;20065;-75
2023/05/07 00:33:56;;;;;;;27.30;17.35;;;12.80;99.90;;;;;;4963991;28;20089;-72
2023/05/07 00:36:22;;;;;;;19.83;16.95;;;12.70;99.90;;;;;;4963718;28;20042;-74
2023/05/07 00:38:48;;;;;;;24.05;17.05;;;12.70;99.90;;;;;;4945457;29;20505;-73
2023/05/07 00:41:13;;;;;;;27.92;18.42;;;12.60;99.90;;;;;;4962518;28;20574;-75
2023/05/07 00:43:39;;;;;;;24.08;18.08;;;12.60;99.90;;;;;;4965759;28;20413;-75
2023/05/07 00:46:05;;;;;;;20.35;17.13;;;12.60;99.90;;;;;;4965715;28;20077;-74
2023/05/07 00:48:31;;;;;;;24.42;18.42;;;12.50;99.90;;;;;;4947034;28;20049;-73
2023/05/07 00:50:57;;;;;;;26.77;19.02;;;12.60;99.90;;;;;;4962608;28;20055;-72
2023/05/07 00:53:22;;;;;;;21.55;16.67;;;12.60;99.90;;;;;;4945308;29;20062;-74
2023/05/07 00:55:48;;;;;;;24.30;17.95;;;12.50;99.90;;;;;;4964884;28;20070;-72
2023/05/07 00:58:14;;;;;;;24.20;18.27;;;12.50;99.90;;;;;;4965760;28;20592;-73
2023/05/07 01:00:40;;;;;;;27.23;19.13;;;12.50;99.90;;;;;;4947413;28;20125;-72
2023/05/07 01:03:06;;;;;;;26.10;18.77;;;12.50;99.90;;;;;;4962715;28;20074;-72
2023/05/07 01:05:32;;;;;;;28.67;19.02;;;12.50;99.90;;;;;;4962479;28;20847;-73
2023/05/07 01:07:58;;;;;;;28.48;19.15;;;12.40;99.90;;;;;;4964774;28;20053;-72
2023/05/07 01:10:24;;;;;;;25.17;19.17;;;12.40;99.90;;;;;;4965109;28;20046;-72
2023/05/07 01:12:50;;;;;;;25.42;18.27;;;12.40;99.90;;;;;;4947023;28;20051;-72
2023/05/07 01:15:17;;;;;;;23.70;17.40;;;12.30;99.90;;;;;;4962149;28;20039;-74
2023/05/07 01:17:43;;;;;;;27.73;19.05;;;12.30;99.90;;;;;;4944871;29;20410;-72
2023/05/07 01:20:10;;;;;;;28.58;19.60;;;12.30;99.90;;;;;;4964282;28;20118;-73
2023/05/07 01:22:37;;;;;;;26.33;19.70;;;12.30;99.90;;;;;;4964872;28;20055;-72
2023/05/07 01:25:07;;;;;;;26.35;18.63;;;12.30;99.90;;;;;;4963672;28;20151;-73
2023/05/07 01:27:35;;;;;;;26.05;18.80;;;12.20;99.90;;;;;;4961749;28;20518;-73
2023/05/07 01:30:01;;;;;;;27.95;20.20;;;12.20;99.90;;;;;;4961652;28;20122;-72
2023/05/07 01:32:49;;;;;;;24.25;19.10;;;12.20;99.90;;;;;;4965018;28;20035;-71
2023/05/07 01:35:20;;;;;;;27.08;19.13;;;12.20;99.90;;;;;;4963469;28;20066;-73
2023/05/07 01:37:47;;;;;;;28.77;20.13;;;12.20;99.90;;;;;;4944365;29;20397;-73
2023/05/07 01:40:13;;;;;;;26.20;19.80;;;12.20;99.90;;;;;;4961752;28;20066;-72
2023/05/07 01:42:41;;;;;;;26.77;19.17;;;12.10;99.90;;;;;;4947133;28;20129;-72
2023/05/07 01:45:07;;;;;;;28.73;19.05;;;12.10;99.90;;;;;;4947421;28;20121;-72
2023/05/07 01:47:33;;;;;;;28.92;20.90;;;12.10;99.90;;;;;;4945117;28;20050;-74
2023/05/07 01:49:59;;;;;;;24.85;18.80;;;12.10;99.90;;;;;;4961419;28;20039;-73
2023/05/07 01:52:25;;;;;;;27.17;19.75;;;12.10;99.90;;;;;;4943885;28;20055;-72
2023/05/07 01:54:50;;;;;;;26.02;19.92;;;12.20;99.90;;;;;;4947387;28;20058;-72
2023/05/07 01:57:16;;;;;;;28.42;20.70;;;12.00;99.90;;;;;;4946922;28;20070;-73
2023/05/07 01:59:41;;;;;;;30.02;20.42;;;11.90;99.90;;;;;;4962988;28;20053;-72
2023/05/07 02:02:07;;;;;;;26.35;19.75;;;11.90;99.90;;;;;;4961598;28;20050;-73
2023/05/07 02:04:33;;;;;;;27.38;21.42;;;11.90;99.90;;;;;;4961141;28;20525;-72
2023/05/07 02:06:58;;;;;;;29.85;21.10;;;11.90;99.90;;;;;;4946558;28;20070;-72
2023/05/07 02:09:24;;;;;;;33.15;22.73;;;11.80;99.90;;;;;;4964398;28;20418;-73
2023/05/07 02:11:49;;;;;;;29.05;20.92;;;11.80;99.90;;;;;;4929459;28;20569;-73
2023/05/07 02:14:15;;;;;;;32.47;22.33;;;11.80;99.90;;;;;;4960985;28;20058;-73
2023/05/07 02:16:41;;;;;;;27.92;21.02;;;11.70;99.90;;;;;;4943867;29;20075;-72
2023/05/07 02:19:07;;;;;;;27.33;21.77;;;12.00;99.90;;;;;;4945967;28;20039;-72
2023/05/07 02:21:32;;;;;;;27.20;21.52;;;11.70;99.90;;;;;;4946682;28;20129;-72
2023/05/07 02:23:58;;;;;;;35.35;23.35;;;11.80;99.90;;;;;;4963672;28;20053;-73
2023/05/07 02:26:24;;;;;;;28.67;21.90;;;11.70;99.90;;;;;;4944040;29;20047;-72
2023/05/07 02:28:50;;;;;;;31.70;23.52;;;11.60;99.90;;;;;;4960933;28;20041;-73
2023/05/07 02:31:16;;;;;;;30.60;22.75;;;11.60;99.90;;;;;;4962693;28;20066;-73
2023/05/07 02:33:41;;;;;;;32.70;23.38;;;11.60;99.90;;;;;;4963912;28;20043;-73
2023/05/07 02:36:11;;;;;;;36.00;24.95;;;11.60;99.90;;;;;;4963658;28;20105;-72
2023/05/07 02:38:37;;;;;;;30.40;23.15;;;11.50;99.90;;;;;;4960695;28;20054;-75
2023/05/07 02:41:03;;;;;;;31.95;24.70;;;11.50;99.90;;;;;;4960791;28;20047;-74
2023/05/07 02:43:28;;;;;;;35.70;23.20;;;11.50;99.90;;;;;;4962603;28;20087;-73
2023/05/07 02:46:05;;;;;;;32.47;23.38;;;11.40;99.90;;;;;;4965756;28;20056;-73
2023/05/07 02:48:30;;;;;;;36.58;23.02;;;11.40;99.90;;;;;;4949009;28;20059;-74
2023/05/07 02:50:56;;;;;;;32.83;24.77;;;11.40;99.90;;;;;;4964693;28;20051;-73
2023/05/07 02:53:22;;;;;;;33.97;24.70;;;11.40;99.90;;;;;;4965039;28;20055;-73
2023/05/07 02:55:48;;;;;;;33.17;23.67;;;11.40;99.90;;;;;;4967515;28;20042;-72
2023/05/07 02:58:13;;;;;;;32.65;24.60;;;11.40;99.90;;;;;;4967727;28;20081;-75
2023/05/07 03:00:40;;;;;;;36.00;25.75;;;11.40;99.90;;;;;;4948934;28;20132;-74
2023/05/07 03:03:05;;;;;;;33.67;24.35;;;11.40;99.90;;;;;;4964589;28;20046;-74
2023/05/07 03:05:31;;;;;;;38.40;26.20;;;11.30;99.90;;;;;;4947280;29;20047;-72
2023/05/07 03:07:57;;;;;;;36.55;26.63;;;11.80;99.90;;;;;;4966898;28;20138;-72
2023/05/07 03:10:22;;;;;;;35.80;25.70;;;11.50;99.90;;;;;;4967619;28;20055;-75
2023/05/07 03:12:48;;;;;;;40.42;26.55;;;11.60;99.90;;;;;;4949179;28;20043;-73
2023/05/07 03:15:14;;;;;;;36.95;25.70;;;11.30;99.90;;;;;;4964336;28;20054;-75
2023/05/07 03:17:40;;;;;;;36.30;26.85;;;11.60;99.90;;;;;;4915318;29;20054;-74
2023/05/07 03:20:06;;;;;;;37.13;26.13;;;11.30;99.90;;;;;;4949064;28;20051;-75
2023/05/07 03:22:32;;;;;;;42.00;27.42;;;11.20;99.90;;;;;;4967304;28;20046;-73
2023/05/07 03:24:58;;;;;;;39.88;25.70;;;11.20;99.90;;;;;;4949309;28;20054;-72
2023/05/07 03:27:24;;;;;;;35.85;25.05;;;11.30;99.90;;;;;;4964242;28;20403;-72
2023/05/07 03:29:49;;;;;;;38.70;25.83;;;11.40;99.90;;;;;;4946421;29;20047;-73
2023/05/07 03:32:15;;;;;;;39.75;27.58;;;11.40;99.90;;;;;;4965736;28;20232;-72
2023/05/07 03:34:40;;;;;;;41.78;27.95;;;11.20;99.90;;;;;;4949850;28;20046;-72
2023/05/07 03:37:06;;;;;;;40.97;27.55;;;11.20;99.90;;;;;;4967102;28;20101;-74
2023/05/07 03:39:32;;;;;;;38.97;26.77;;;11.20;99.90;;;;;;4963775;28;20099;-73
2023/05/07 03:41:58;;;;;;;41.70;27.73;;;11.20;99.90;;;;;;4963996;28;20414;-73
2023/05/07 03:44:24;;;;;;;38.55;26.88;;;11.20;99.90;;;;;;4964717;28;20130;-72
2023/05/07 03:46:49;;;;;;;42.80;27.30;;;11.20;99.90;;;;;;4949439;28;20130;-72
2023/05/07 03:49:15;;;;;;;41.63;27.98;;;11.20;99.90;;;;;;4966873;28;20158;-72
2023/05/07 03:51:41;;;;;;;44.58;27.90;;;11.10;99.90;;;;;;4964185;28;20055;-73
2023/05/07 03:54:07;;;;;;;42.03;27.70;;;11.60;99.90;;;;;;4946215;29;20395;-72
2023/05/07 03:56:32;;;;;;;43.35;27.80;;;11.20;99.90;;;;;;4964124;28;20145;-71
2023/05/07 03:58:58;;;;;;;44.33;27.83;;;11.20;99.90;;;;;;4949212;28;20702;-72
2023/05/07 04:01:23;;;;;;;40.65;27.50;;;11.10;99.90;;;;;;4949235;28;20051;-72
2023/05/07 04:03:49;;;;;;;44.75;29.63;;;11.10;99.90;;;;;;4946904;28;20474;-72
2023/05/07 04:06:17;;;;;;;45.85;29.08;;;11.40;99.90;;;;;;4963657;28;20055;-72
2023/05/07 04:08:43;;;;;;;46.15;30.77;;;11.20;99.90;;;;;;4963852;28;20062;-72
2023/05/07 04:11:08;;;;;;;47.38;29.70;;;11.10;99.90;;;;;;4966511;28;20043;-72
2023/05/07 04:13:34;;;;;;;43.08;28.00;;;11.10;99.90;;;;;;4966417;28;20100;-71
2023/05/07 04:16:02;;;;;;;45.10;27.73;;;11.10;99.90;;;;;;4964101;28;20046;-73
2023/05/07 04:18:28;;;;;;;45.83;28.55;;;11.10;99.90;;;;;;4963388;28;20767;-72
2023/05/07 04:20:53;;;;;;;43.63;28.90;;;11.10;99.90;;;;;;4963301;28;20078;-72
2023/05/07 04:23:19;;;;;;;42.70;29.50;;;11.10;99.90;;;;;;4948865;28;20128;-72
2023/05/07 04:25:45;;;;;;;48.67;29.17;;;11.20;99.90;;;;;;4950039;29;20569;-72
2023/05/07 04:28:11;;;;;;;43.42;28.88;;;11.10;99.90;;;;;;4964777;28;20054;-72
2023/05/07 04:30:37;;;;;;;41.30;28.33;;;11.10;99.90;;;;;;4948470;28;20050;-71
2023/05/07 04:33:02;;;;;;;45.22;29.67;;;11.10;99.90;;;;;;4966089;28;20065;-71
2023/05/07 04:35:28;;;;;;;42.33;28.88;;;11.10;99.90;;;;;;4945306;28;20046;-71
2023/05/07 04:37:54;;;;;;;46.65;29.17;;;11.10;99.90;;;;;;4945383;29;20035;-71
2023/05/07 04:40:20;;;;;;;40.55;28.75;;;11.00;99.90;;;;;;4963539;28;20056;-72
2023/05/07 04:42:45;;;;;;;45.97;28.48;;;11.20;99.90;;;;;;4966005;28;20114;-72
2023/05/07 04:45:12;;;;;;;43.03;28.55;;;11.40;99.90;;;;;;4948238;28;20411;-71
2023/05/07 04:47:38;;;;;;;50.80;29.45;;;11.00;99.90;;;;;;4962773;28;20705;-72
2023/05/07 04:50:04;;;;;;;45.03;28.55;;;11.30;99.90;;;;;;4962747;28;20468;-71
2023/05/07 04:52:31;;;;;;;43.42;28.92;;;11.00;99.90;;;;;;4946603;28;20035;-71
2023/05/07 04:54:58;;;;;;;46.35;29.48;;;11.10;99.90;;;;;;4965448;28;20102;-72
2023/05/07 04:57:24;;;;;;;42.28;26.75;;;11.20;99.90;;;;;;4965643;28;20050;-71
2023/05/07 04:59:49;;;;;;;40.10;27.50;;;11.20;99.90;;;;;;4962655;28;20045;-72
2023/05/07 05:02:15;;;;;;;45.22;28.48;;;11.10;99.90;;;;;;4962606;28;20487;-72
2023/05/07 05:04:41;;;;;;;40.83;28.88;;;11.00;99.90;;;;;;4945762;28;20111;-72
2023/05/07 05:07:07;;;;;;;41.60;28.10;;;11.00;99.90;;;;;;4947957;28;20053;-72
2023/05/07 05:09:32;;;;;;;41.63;27.60;;;11.00;99.90;;;;;;4964380;28;20070;-71
2023/05/07 05:11:59;;;;;;;39.65;25.42;;;11.00;99.90;;;;;;4945394;28;20089;-70
2023/05/07 05:14:25;;;;;;;46.22;29.10;;;10.90;99.90;;;;;;4944845;29;20094;-72
2023/05/07 05:16:50;;;;;;;43.10;26.13;;;11.00;99.90;;;;;;4962249;28;20105;-72
2023/05/07 05:19:16;;;;;;;41.03;27.00;;;11.10;99.90;;;;;;4965293;28;20058;-72
2023/05/07 05:21:42;;;;;;;40.85;27.45;;;10.90;99.90;;;;;;4965216;28;20465;-72
2023/05/07 05:24:07;;;;;;;40.35;26.95;;;11.00;99.90;;;;;;4963165;28;20046;-71
2023/05/07 05:26:33;;;;;;;37.35;26.83;;;10.90;99.90;;;;;;4944825;29;20467;-71
2023/05/07 05:28:59;;;;;;;40.08;26.95;;;11.10;99.90;;;;;;4962038;28;20066;-71
2023/05/07 05:31:24;;;;;;;38.95;25.80;;;11.00;99.90;;;;;;4946608;28;20057;-72
2023/05/07 05:33:50;;;;;;;37.25;25.80;;;10.90;99.90;;;;;;4947696;28;20053;-72
2023/05/07 05:36:16;;;;;;;38.33;25.77;;;10.90;99.90;;;;;;4945398;28;20047;-72
2023/05/07 05:38:42;;;;;;;35.70;25.30;;;11.30;99.90;;;;;;4961602;28;20043;-71
2023/05/07 05:41:09;;;;;;;36.33;25.60;;;11.10;99.90;;;;;;4944185;29;20071;-71
2023/05/07 05:43:34;;;;;;;34.50;26.08;;;10.90;99.90;;;;;;4947113;28;20520;-72
2023/05/07 05:46:00;;;;;;;34.60;24.50;;;10.90;99.90;;;;;;4964667;28;20458;-72
2023/05/07 05:48:26;;;;;;;35.05;23.98;;;11.10;99.90;;;;;;4946062;28;20050;-71
2023/05/07 05:50:51;;;;;;;35.20;24.02;;;10.90;99.90;;;;;;4961495;28;20423;-72
2023/05/07 05:53:17;;;;;;;37.08;24.52;;;10.90;99.90;;;;;;4944332;29;20066;-72
2023/05/07 05:55:43;;;;;;;37.72;24.00;;;11.30;99.90;;;;;;4946509;28;20552;-72
2023/05/07 05:58:09;;;;;;;36.60;24.92;;;10.90;99.90;;;;;;4964291;28;20050;-72
2023/05/07 06:00:35;;;;;;;34.80;24.83;;;10.90;99.90;;;;;;4963708;28;20458;-72
2023/05/07 06:03:01;;;;;;;36.78;24.83;;;10.90;99.90;;;;;;4961263;28;20043;-71
2023/05/07 06:05:26;;;;;;;34.03;24.40;;;11.00;99.90;;;;;;4943732;29;20053;-71
2023/05/07 06:07:52;;;;;;;35.28;24.10;;;11.00;99.90;;;;;;4945755;28;20106;-72
2023/05/07 06:10:17;;;;;;;30.48;23.55;;;11.30;99.90;;;;;;4947364;28;20081;-71
2023/05/07 06:12:44;;;;;;;36.03;24.95;;;11.00;99.90;;;;;;4964239;28;20046;-73
2023/05/07 06:15:10;;;;;;;30.52;22.85;;;11.50;99.90;;;;;;4953584;28;20847;-71
2023/05/07 06:17:35;;;;;;;29.90;23.08;;;11.00;99.90;;;;;;4943390;29;20051;-71
2023/05/07 06:20:01;;;;;;;32.67;23.67;;;11.00;99.90;;;;;;4944978;28;20043;-71
2023/05/07 06:22:27;;;;;;;32.50;24.02;;;11.00;99.90;;;;;;4946785;28;20130;-72
2023/05/07 06:24:52;;;;;;;32.50;23.52;;;11.30;99.90;;;;;;4963998;28;20106;-71
2023/05/07 06:27:18;;;;;;;30.90;22.65;;;11.10;99.90;;;;;;4961047;28;20043;-71
2023/05/07 06:29:44;;;;;;;33.15;22.33;;;11.10;99.90;;;;;;4961077;28;20446;-72
2023/05/07 06:32:11;;;;;;;31.35;22.42;;;11.10;99.90;;;;;;4944324;28;20043;-70
2023/05/07 06:34:37;;;;;;;32.90;22.40;;;11.20;99.90;;;;;;4964197;28;20046;-72
2023/05/07 06:37:03;;;;;;;33.58;23.83;;;11.20;99.90;;;;;;4964099;28;20364;-71
2023/05/07 06:39:28;;;;;;;29.25;22.05;;;11.20;99.90;;;;;;4943989;28;20113;-71
2023/05/07 06:41:54;;;;;;;32.97;23.88;;;11.30;99.90;;;;;;4959518;28;20483;-71
2023/05/07 06:44:20;;;;;;;29.63;22.65;;;11.40;99.90;;;;;;4961441;28;20046;-71
2023/05/07 06:46:45;;;;;;;34.58;23.63;;;11.40;99.90;;;;;;4962337;28;20573;-71
2023/05/07 06:49:12;;;;;;;34.65;23.60;;;11.40;99.90;;;;;;4963888;28;20097;-71
2023/05/07 06:51:38;;;;;;;31.65;23.05;;;11.40;99.90;;;;;;4961596;28;20051;-72
2023/05/07 06:54:04;;;;;;;32.88;22.65;;;11.50;99.90;;;;;;4960958;28;20050;-71
2023/05/07 06:56:30;;;;;;;31.63;22.08;;;11.40;99.90;;;;;;4943916;28;20410;-70
2023/05/07 06:58:56;;;;;;;30.10;21.92;;;11.50;99.90;;;;;;4963612;28;20047;-72
2023/05/07 07:01:22;;;;;;;29.65;21.38;;;11.60;99.90;;;;;;4946526;28;20046;-72
2023/05/07 07:03:47;;;;;;;31.17;21.83;;;11.50;99.90;;;;;;4944339;28;20057;-72
2023/05/07 07:06:13;;;;;;;27.70;21.85;;;11.50;99.90;;;;;;4960931;28;20055;-71
2023/05/07 07:08:39;;;;;;;31.23;21.58;;;11.60;99.90;;;;;;4943249;28;20542;-71
2023/05/07 07:11:05;;;;;;;29.00;21.90;;;11.50;99.90;;;;;;4963696;28;20413;-72
2023/05/07 07:13:31;;;;;;;29.15;21.88;;;11.50;99.90;;;;;;4946082;28;20126;-72
2023/05/07 07:15:56;;;;;;;36.15;22.05;;;11.60;99.90;;;;;;4962102;28;20130;-72
2023/05/07 07:18:22;;;;;;;27.48;20.60;;;11.60;99.90;;;;;;4960533;28;20106;-71
2023/05/07 07:20:48;;;;;;;29.85;21.77;;;11.60;99.90;;;;;;4960848;28;20484;-71
2023/05/07 07:23:14;;;;;;;28.63;21.20;;;11.60;99.90;;;;;;4930337;28;20410;-72
2023/05/07 07:25:39;;;;;;;29.38;21.77;;;11.70;99.90;;;;;;4963531;28;20121;-72
2023/05/07 07:28:06;;;;;;;29.63;22.63;;;11.70;99.90;;;;;;4962103;28;20126;-72
2023/05/07 07:30:31;;;;;;;27.95;21.30;;;12.10;99.90;;;;;;4960341;28;20156;-72
2023/05/07 07:33:02;;;;;;;30.65;21.98;;;12.20;99.90;;;;;;4963504;28;20064;-73
2023/05/07 07:35:31;;;;;;;30.02;21.45;;;11.80;99.90;;;;;;4963993;28;20126;-72
2023/05/07 07:37:57;;;;;;;29.20;21.85;;;11.80;99.90;;;;;;4964141;28;20035;-71
2023/05/07 07:40:23;;;;;;;29.77;21.92;;;11.80;99.90;;;;;;4965665;28;20122;-72
2023/05/07 07:42:49;;;;;;;28.13;22.08;;;11.80;99.90;;;;;;4966777;28;20054;-72
2023/05/07 07:45:14;;;;;;;30.13;22.70;;;11.90;99.90;;;;;;4949663;28;20601;-73
2023/05/07 07:47:40;;;;;;;28.15;22.52;;;11.90;99.90;;;;;;4963981;28;20054;-72
2023/05/07 07:50:07;;;;;;;28.75;21.45;;;11.90;99.90;;;;;;4946684;29;20047;-72
2023/05/07 07:52:33;;;;;;;29.50;22.65;;;12.00;99.90;;;;;;4965445;28;20036;-73
2023/05/07 07:54:59;;;;;;;28.83;21.58;;;12.00;99.90;;;;;;4967058;28;20047;-72
2023/05/07 07:57:25;;;;;;;29.95;20.95;;;12.20;99.90;;;;;;4966609;28;20055;-72
2023/05/07 07:59:50;;;;;;;28.20;22.08;;;12.00;99.90;;;;;;4963525;28;20193;-72
2023/05/07 08:02:16;;;;;;;30.02;22.10;;;12.00;99.90;;;;;;4963869;28;20474;-71
2023/05/07 08:04:45;;;;;;;31.48;22.92;;;12.30;99.90;;;;;;4964365;28;20039;-74
2023/05/07 08:07:11;;;;;;;28.40;21.98;;;12.20;99.90;;;;;;4966398;28;20463;-71
2023/05/07 08:09:38;;;;;;;30.00;21.77;;;12.10;99.90;;;;;;4966199;28;20728;-72
2023/05/07 08:12:04;;;;;;;29.60;22.23;;;12.20;99.90;;;;;;4963223;28;20518;-73
2023/05/07 08:14:30;;;;;;;31.00;22.83;;;12.20;99.90;;;;;;4963095;28;20051;-73
2023/05/07 08:16:56;;;;;;;32.95;21.90;;;12.20;99.90;;;;;;4964648;28;20047;-73
2023/05/07 08:19:22;;;;;;;30.88;22.25;;;12.30;99.90;;;;;;4966063;28;20455;-75
2023/05/07 08:21:47;;;;;;;31.40;22.25;;;12.40;99.90;;;;;;4966406;28;20070;-73
2023/05/07 08:24:14;;;;;;;30.63;22.17;;;12.50;99.90;;;;;;4963337;28;20069;-74
2023/05/07 08:26:40;;;;;;;32.40;22.95;;;12.50;99.90;;;;;;4963226;28;20103;-74
2023/05/07 08:29:06;;;;;;;30.17;22.70;;;12.60;99.90;;;;;;4946662;28;20122;-73
2023/05/07 08:31:31;;;;;;;28.75;22.33;;;12.70;99.90;;;;;;4948614;28;20121;-72
2023/05/07 08:33:58;;;;;;;31.33;22.80;;;12.70;99.90;;;;;;4965979;28;20062;-75
2023/05/07 08:36:24;;;;;;;31.02;23.45;;;12.80;99.90;;;;;;4940258;28;20047;-73
2023/05/07 08:38:49;;;;;;;30.25;22.55;;;12.80;99.90;;;;;;4948191;28;20078;-73
2023/05/07 08:41:16;;;;;;;28.88;22.88;;;12.80;99.90;;;;;;4947773;28;20093;-74
2023/05/07 08:43:45;;;;;;;33.65;23.88;;;12.90;99.90;;;;;;4940008;28;20051;-75
2023/05/07 08:46:13;;;;;;;30.70;22.38;;;13.30;99.90;;;;;;4948240;28;20085;-73
2023/05/07 08:48:39;;;;;;;29.50;23.50;;;13.10;99.90;;;;;;4962751;28;20127;-74
2023/05/07 08:51:05;;;;;;;31.77;23.30;;;13.10;99.90;;;;;;4945015;29;20122;-73
2023/05/07 08:53:31;;;;;;;31.48;22.63;;;13.10;99.90;;;;;;4946393;28;20047;-73
2023/05/07 08:55:57;;;;;;;30.27;23.02;;;13.20;99.90;;;;;;4948319;28;20101;-73
2023/05/07 08:58:22;;;;;;;32.63;23.42;;;13.30;99.90;;;;;;4965892;28;20046;-73
2023/05/07 09:00:48;;;;;;;29.92;22.55;;;13.40;99.90;;;;;;4945445;28;20086;-73
2023/05/07 09:03:14;;;;;;;31.98;23.27;;;13.60;99.90;;;;;;4944921;29;20055;-72
2023/05/07 09:05:40;;;;;;;31.50;24.42;;;13.70;99.90;;;;;;4962801;28;20094;-73
2023/05/07 09:08:07;;;;;;;30.02;23.92;;;13.80;99.90;;;;;;4965194;28;20042;-73
2023/05/07 09:10:33;;;;;;;30.17;21.95;;;14.10;99.90;;;;;;4965278;28;20053;-73
2023/05/07 09:12:59;;;;;;;31.40;23.67;;;13.90;99.90;;;;;;4962823;28;20062;-74
2023/05/07 09:15:26;;;;;;;29.65;22.55;;;14.00;99.90;;;;;;4944928;29;20486;-74
2023/05/07 09:17:52;;;;;;;26.80;21.27;;;14.00;99.90;;;;;;4962770;28;20047;-74
2023/05/07 09:20:18;;;;;;;27.55;21.42;;;14.20;99.90;;;;;;4965298;28;20046;-73
2023/05/07 09:22:44;;;;;;;27.80;21.73;;;14.30;99.90;;;;;;4965165;28;20047;-75
2023/05/07 09:25:09;;;;;;;26.27;20.38;;;14.30;99.90;;;;;;4962642;28;20105;-73
2023/05/07 09:27:35;;;;;;;27.17;20.80;;;14.50;99.90;;;;;;4961929;28;20047;-75
2023/05/07 09:30:06;;;;;;;29.67;21.65;;;14.40;99.90;;;;;;4962102;28;20047;-74
2023/05/07 09:32:34;;;;;;;25.95;21.13;;;14.60;99.90;;;;;;4965102;28;20053;-73
2023/05/07 09:35:00;;;;;;;27.40;20.50;;;14.60;99.90;;;;;;4964998;28;20085;-74
2023/05/07 09:37:26;;;;;;;25.67;20.35;;;14.70;99.90;;;;;;4961968;28;20075;-74
2023/05/07 09:39:52;;;;;;;28.10;20.55;;;14.80;99.90;;;;;;4961743;28;20051;-74
2023/05/07 09:42:24;;;;;;;27.67;21.02;;;14.90;99.90;;;;;;4962950;28;20466;-75
2023/05/07 09:44:51;;;;;;;29.55;21.27;;;15.00;99.90;;;;;;4964761;28;20078;-74
2023/05/07 09:47:21;;;;;;;25.85;20.27;;;15.10;99.90;;;;;;4947146;28;20217;-75
2023/05/07 09:49:48;;;;;;;24.70;19.80;;;15.10;99.90;;;;;;4944240;29;20051;-74
2023/05/07 09:52:14;;;;;;;25.67;19.65;;;15.20;99.90;;;;;;4961619;28;20047;-75
2023/05/07 09:54:43;;;;;;;25.92;20.15;;;15.30;99.90;;;;;;4963458;28;20071;-75
2023/05/07 09:57:11;;;;;;;23.67;18.27;;;15.40;99.90;;;;;;4947272;28;20701;-74
2023/05/07 09:59:38;;;;;;;24.20;19.05;;;15.50;99.90;;;;;;4963147;28;20049;-76
2023/05/07 10:02:05;;;;;;;24.63;19.40;;;15.70;99.90;;;;;;4961676;28;20058;-74
2023/05/07 10:04:31;;;;;;;21.23;17.50;;;16.10;99.90;;;;;;4961343;28;20043;-74
2023/05/07 10:06:58;;;;;;;28.05;19.05;;;16.10;99.90;;;;;;4963870;28;20042;-74
2023/05/07 10:09:26;;;;;;;23.77;18.00;;;16.20;99.90;;;;;;4964275;28;20059;-73
2023/05/07 10:11:52;;;;;;;23.40;18.38;;;16.20;99.90;;;;;;4962506;28;20049;-74
2023/05/07 10:14:20;;;;;;;21.85;17.95;;;16.30;99.90;;;;;;4961154;28;20518;-74
2023/05/07 10:16:48;;;;;;;22.20;18.17;;;16.50;99.90;;;;;;4944158;28;20110;-73
2023/05/07 10:19:14;;;;;;;24.23;17.60;;;16.40;99.90;;;;;;4964315;28;20051;-73
2023/05/07 10:21:48;;;;;;;25.35;18.17;;;16.60;99.90;;;;;;4971693;28;20082;-72
2023/05/07 10:24:35;;;;;;;22.67;16.90;;;16.50;99.90;;;;;;4972610;28;20100;-72
2023/05/07 10:27:02;;;;;;;23.05;17.13;;;16.70;99.90;;;;;;4972794;28;20039;-73
2023/05/07 10:29:47;;;;;;;21.98;16.35;;;16.90;99.90;;;;;;4952927;28;20479;-73
2023/05/07 10:32:41;;;;;;;21.10;16.98;;;16.90;99.90;;;;;;4960379;28;20130;-73
2023/05/07 10:35:13;;;;;;;22.48;17.35;;;17.00;99.90;;;;;;4964444;28;20039;-74
2023/05/07 10:37:40;;;;;;;21.55;16.80;;;17.00;99.90;;;;;;4961203;28;20051;-75
2023/05/07 10:40:06;;;;;;;21.85;16.95;;;17.20;99.90;;;;;;4960992;28;20055;-74
2023/05/07 10:42:32;;;;;;;22.38;16.77;;;17.20;99.90;;;;;;4963665;28;20042;-74
2023/05/07 10:45:13;;;;;;;22.05;16.95;;;17.20;99.90;;;;;;4946460;28;20102;-74
2023/05/07 10:48:14;;;;;;;23.20;16.67;;;17.20;99.90;;;;;;4960808;28;20047;-74
2023/05/07 10:50:41;;;;;;;21.15;17.00;;;17.20;99.90;;;;;;4963494;28;20059;-73
2023/05/07 10:53:19;;;;;;;23.58;17.02;;;17.40;99.90;;;;;;4963832;28;20043;-73
2023/05/07 10:55:50;;;;;;;24.88;17.00;;;17.40;99.90;;;;;;4961207;28;20051;-74
2023/05/07 10:58:21;;;;;;;19.40;16.48;;;17.50;99.90;;;;;;4943607;29;20055;-76
2023/05/07 11:00:48;;;;;;;23.23;17.02;;;17.80;99.90;;;;;;4963305;28;20399;-75
2023/05/07 11:03:14;;;;;;;19.30;16.23;;;17.90;99.90;;;;;;4946844;28;20062;-75
2023/05/07 11:05:41;;;;;;;20.00;15.45;;;18.00;99.90;;;;;;4963333;28;20035;-73
2023/05/07 11:08:08;;;;;;;19.85;16.35;;;18.20;99.90;;;;;;4946591;29;20102;-75
2023/05/07 11:10:54;;;;;;;20.02;15.38;;;18.30;99.90;;;;;;4964490;28;20394;-74
2023/05/07 11:13:46;;;;;;;18.27;15.63;;;18.30;99.90;;;;;;4941369;29;20118;-75
2023/05/07 11:16:23;;;;;;;19.05;15.10;;;18.40;99.90;;;;;;4956586;28;20047;-72
2023/05/07 11:18:50;;;;;;;18.38;14.48;;;18.50;99.90;;;;;;4964669;28;20164;-73
2023/05/07 11:21:35;;;;;;;18.75;15.48;;;18.60;99.90;;;;;;4966083;28;20097;-74
2023/05/07 11:24:02;;;;;;;18.38;15.55;;;18.80;99.90;;;;;;4948795;28;20055;-73
2023/05/07 11:26:30;;;;;;;19.20;15.93;;;19.10;99.90;;;;;;4964361;28;20031;-74
2023/05/07 11:28:57;;;;;;;15.55;13.05;;;19.40;99.90;;;;;;4964046;28;20490;-74
2023/05/07 11:31:26;;;;;;;16.63;14.82;;;19.40;99.90;;;;;;4966892;28;20043;-74
2023/05/07 11:33:53;;;;;;;17.67;15.18;;;19.50;99.90;;;;;;4950007;28;20101;-74
2023/05/07 11:36:20;;;;;;;17.65;14.30;;;19.40;99.90;;;;;;4964937;28;20053;-73
2023/05/07 11:38:46;;;;;;;16.83;14.82;;;19.50;99.90;;;;;;4963851;28;20057;-74
2023/05/07 11:41:12;;;;;;;17.95;14.13;;;19.60;99.90;;;;;;4946612;29;20107;-74
2023/05/07 11:43:39;;;;;;;17.05;14.38;;;19.80;99.90;;;;;;4963848;28;20121;-76
2023/05/07 11:46:14;;;;;;;18.45;14.32;;;19.90;99.90;;;;;;4930543;29;20054;-74
2023/05/07 11:48:41;;;;;;;18.73;14.65;;;20.00;99.90;;;;;;4949359;28;20050;-73
2023/05/07 11:51:11;;;;;;;16.35;13.10;;;20.20;99.90;;;;;;4933984;28;20047;-74
2023/05/07 11:53:39;;;;;;;17.05;14.57;;;20.30;99.90;;;;;;4947356;28;20050;-74
2023/05/07 11:56:16;;;;;;;17.23;14.05;;;20.30;99.90;;;;;;4963618;28;20109;-74
2023/05/07 11:58:43;;;;;;;17.00;14.70;;;20.10;99.90;;;;;;4965517;28;20118;-74
2023/05/07 12:01:10;;;;;;;17.45;13.98;;;20.10;99.90;;;;;;4966818;28;20121;-75
2023/05/07 12:03:42;;;;;;;16.52;13.48;;;20.10;99.90;;;;;;4965903;28;20047;-74
2023/05/07 12:06:08;;;;;;;16.33;13.32;;;20.30;99.90;;;;;;4963473;28;20044;-74
2023/05/07 12:08:38;;;;;;;15.55;13.55;;;20.50;99.90;;;;;;4963385;28;20043;-74
2023/05/07 12:11:08;;;;;;;17.73;14.20;;;20.40;99.90;;;;;;4963283;28;20126;-76
2023/05/07 12:13:34;;;;;;;16.45;13.43;;;20.50;99.90;;;;;;4963237;28;20075;-74
2023/05/07 12:16:00;;;;;;;15.18;13.20;;;20.50;99.90;;;;;;4965035;28;20043;-75
2023/05/07 12:18:27;;;;;;;15.68;14.02;;;20.30;99.90;;;;;;4965716;28;20528;-75
2023/05/07 12:20:53;;;;;;;14.77;12.43;;;20.40;99.90;;;;;;4948255;28;20051;-74
2023/05/07 12:23:20;;;;;;;15.65;13.27;;;20.60;99.90;;;;;;4945484;29;20074;-75
2023/05/07 12:25:48;;;;;;;14.82;12.82;;;20.80;99.90;;;;;;4963083;28;20582;-74
2023/05/07 12:28:18;;;;;;;16.33;13.18;;;20.80;99.90;;;;;;4965507;28;20138;-76